createdAt,value
2022-09-21T00:01:22.449Z,99.90
2022-09-21T00:03:54.406Z,99.90
2022-09-21T00:06:22.824Z,99.90
2022-09-21T00:08:50.252Z,99.90
2022-09-21T00:11:27.453Z,99.90
2022-09-21T00:13:56.032Z,99.90
2022-09-21T00:16:23.822Z,99.90
2022-09-21T00:18:50.893Z,99.90
2022-09-21T00:21:19.197Z,99.90
2022-09-21T00:23:46.400Z,99.90
2022-09-21T00:26:19.042Z,99.90
2022-09-21T00:28:46.638Z,99.90
2022-09-21T00:31:17.029Z,99.90
2022-09-21T00:33:44.519Z,99.90
2022-09-21T00:36:14.220Z,99.90
2022-09-21T00:38:41.611Z,99.90
2022-09-21T00:41:10.073Z,99.90
2022-09-21T00:43:40.777Z,99.90
2022-09-21T00:46:27.363Z,99.90
2022-09-21T00:48:54.498Z,99.90
2022-09-21T00:51:21.683Z,99.90
2022-09-21T00:53:54.171Z,99.90
2022-09-21T00:56:21.902Z,99.90
2022-09-21T00:58:51.770Z,99.90
2022-09-21T01:01:19.487Z,99.90
2022-09-21T01:03:47.342Z,99.90
2022-09-21T01:06:16.695Z,99.90
2022-09-21T01:08:45.154Z,99.90
2022-09-21T01:11:30.657Z,99.90
2022-09-21T01:14:00.380Z,99.90
2022-09-21T01:16:41.141Z,99.90
2022-09-21T01:19:39.859Z,99.90
2022-09-21T01:22:35.680Z,99.90
2022-09-21T01:25:32.222Z,99.90
2022-09-21T01:28:37.328Z,99.90
2022-09-21T01:31:07.499Z,99.90
2022-09-21T01:33:41.168Z,99.90
2022-09-21T01:36:13.742Z,99.90
2022-09-21T01:38:49.915Z,99.90
2022-09-21T01:41:21.050Z,99.90
2022-09-21T01:43:52.545Z,99.90
2022-09-21T01:46:22.557Z,99.90
2022-09-21T01:48:54.675Z,99.90
2022-09-21T01:51:25.201Z,99.90
2022-09-21T01:54:21.465Z,99.90
2022-09-21T01:56:55.498Z,99.90
2022-09-21T01:59:25.454Z,99.90
2022-09-21T02:01:58.557Z,99.90
2022-09-21T02:04:26.180Z,99.90
2022-09-21T02:06:53.828Z,99.90
2022-09-21T02:09:20.737Z,99.90
2022-09-21T02:11:47.662Z,99.90
2022-09-21T02:14:20.524Z,99.90
2022-09-21T02:16:58.588Z,99.90
2022-09-21T02:19:35.865Z,99.90
2022-09-21T02:22:14.231Z,99.90
2022-09-21T02:24:43.306Z,99.90
2022-09-21T02:27:53.579Z,99.90
2022-09-21T02:30:33.504Z,99.90
2022-09-21T02:33:22.857Z,99.90
2022-09-21T02:36:23.805Z,99.90
2022-09-21T02:39:05.119Z,99.90
2022-09-21T02:41:42.855Z,99.90
2022-09-21T02:44:18.473Z,99.90
2022-09-21T02:46:59.160Z,99.90
2022-09-21T02:49:34.029Z,99.90
2022-09-21T02:52:07.779Z,99.90
2022-09-21T02:54:36.515Z,99.90
2022-09-21T02:57:04.628Z,99.90
2022-09-21T02:59:31.682Z,99.90
2022-09-21T03:01:58.776Z,99.90
2022-09-21T03:04:27.880Z,99.90
2022-09-21T03:06:54.744Z,99.90
2022-09-21T03:09:24.287Z,99.90
2022-09-21T03:11:51.715Z,99.90
2022-09-21T03:14:19.261Z,99.90
2022-09-21T03:16:46.290Z,99.90
2022-09-21T03:19:13.232Z,99.90
2022-09-21T03:21:44.285Z,99.90
2022-09-21T03:24:11.510Z,99.90
2022-09-21T03:26:38.365Z,99.90
2022-09-21T03:29:05.329Z,99.90
2022-09-21T03:31:32.351Z,99.90
2022-09-21T03:33:59.390Z,99.90
2022-09-21T03:36:26.189Z,99.90
2022-09-21T03:38:53.109Z,99.90
2022-09-21T03:41:19.895Z,99.90
2022-09-21T03:43:46.756Z,99.90
2022-09-21T03:46:13.571Z,99.90
2022-09-21T03:48:44.468Z,99.90
2022-09-21T03:51:11.248Z,99.90
2022-09-21T03:53:38.128Z,99.90
2022-09-21T03:56:05.141Z,99.90
2022-09-21T03:58:31.922Z,99.90
2022-09-21T04:01:03.676Z,99.90
2022-09-21T04:03:33.136Z,99.90
2022-09-21T04:05:59.936Z,99.90
2022-09-21T04:08:26.915Z,99.90
2022-09-21T04:10:53.994Z,99.90
2022-09-21T04:13:20.804Z,99.90
2022-09-21T04:15:47.889Z,99.90
2022-09-21T04:18:14.966Z,99.90
2022-09-21T04:20:41.982Z,99.90
2022-09-21T04:23:09.957Z,99.90
2022-09-21T04:25:37.215Z,99.90
2022-09-21T04:28:04.125Z,99.90
2022-09-21T04:30:34.343Z,99.90
2022-09-21T04:33:04.644Z,99.90
2022-09-21T04:35:50.971Z,99.90
2022-09-21T04:44:17.162Z,99.90
2022-09-21T04:47:03.201Z,99.90
2022-09-21T04:49:37.231Z,99.90
2022-09-21T04:52:06.729Z,99.90
2022-09-21T04:54:40.060Z,99.90
2022-09-21T04:57:07.213Z,99.90
2022-09-21T04:59:40.442Z,99.90
2022-09-21T05:02:16.688Z,99.90
2022-09-21T05:04:51.278Z,99.90
2022-09-21T05:07:29.420Z,99.90
2022-09-21T05:10:05.469Z,99.90
2022-09-21T05:12:34.093Z,99.90
2022-09-21T05:15:11.759Z,99.90
2022-09-21T05:17:48.117Z,99.90
2022-09-21T05:20:18.503Z,99.90
2022-09-21T05:22:48.953Z,99.90
2022-09-21T05:25:16.078Z,99.90
2022-09-21T05:27:42.912Z,99.90
2022-09-21T05:30:10.444Z,99.90
2022-09-21T05:32:49.116Z,99.90
2022-09-21T05:35:31.541Z,99.90
2022-09-21T05:38:16.542Z,99.90
2022-09-21T05:40:43.799Z,99.90
2022-09-21T05:43:11.857Z,99.90
2022-09-21T05:45:47.953Z,99.90
2022-09-21T05:48:21.575Z,99.90
2022-09-21T05:50:57.505Z,99.90
2022-09-21T05:53:38.272Z,99.90
2022-09-21T05:56:22.336Z,99.90
2022-09-21T05:59:27.004Z,99.90
2022-09-21T06:02:00.424Z,99.90
2022-09-21T06:04:27.629Z,99.90
2022-09-21T06:06:54.578Z,99.90
2022-09-21T06:09:21.367Z,99.90
2022-09-21T06:11:48.391Z,99.90
2022-09-21T06:14:15.178Z,99.90
2022-09-21T06:16:43.311Z,99.90
2022-09-21T06:19:13.726Z,99.90
2022-09-21T06:21:40.738Z,99.90
2022-09-21T06:24:07.868Z,99.90
2022-09-21T06:26:34.975Z,99.90
2022-09-21T06:29:01.878Z,99.90
2022-09-21T06:31:29.146Z,99.90
2022-09-21T06:33:56.045Z,99.90
2022-09-21T06:36:23.106Z,99.90
2022-09-21T06:38:49.957Z,99.90
2022-09-21T06:41:21.008Z,99.90
2022-09-21T06:43:48.248Z,99.90
2022-09-21T06:46:15.326Z,99.90
2022-09-21T06:48:42.183Z,99.90
2022-09-21T06:51:10.217Z,99.90
2022-09-21T06:53:37.082Z,99.90
2022-09-21T06:56:06.578Z,99.90
2022-09-21T06:58:34.593Z,99.90
2022-09-21T07:01:09.417Z,99.90
2022-09-21T07:03:37.391Z,99.90
2022-09-21T07:06:05.107Z,99.90
2022-09-21T07:11:19.497Z,99.90
2022-09-21T07:13:46.511Z,99.90
2022-09-21T07:16:14.145Z,99.90
2022-09-21T07:18:44.565Z,99.90
2022-09-21T07:21:11.983Z,99.90
2022-09-21T07:23:38.961Z,99.90
2022-09-21T07:26:11.611Z,99.90
2022-09-21T07:28:39.012Z,99.90
2022-09-21T07:31:10.134Z,99.90
2022-09-21T07:33:37.567Z,99.90
2022-09-21T07:36:11.826Z,99.90
2022-09-21T07:38:43.270Z,99.90
2022-09-21T07:41:12.827Z,99.90
2022-09-21T07:43:40.361Z,99.90
2022-09-21T07:46:12.835Z,99.90
2022-09-21T07:48:39.693Z,99.90
2022-09-21T07:51:14.622Z,99.90
2022-09-21T07:53:59.006Z,99.90
2022-09-21T07:56:26.191Z,99.90
2022-09-21T07:59:08.312Z,99.90
2022-09-21T08:01:40.470Z,99.90
2022-09-21T08:04:09.944Z,99.90
2022-09-21T08:06:40.197Z,99.90
2022-09-21T08:09:08.539Z,99.90
2022-09-21T08:11:37.341Z,99.90
2022-09-21T08:14:05.077Z,99.90
2022-09-21T08:16:33.750Z,99.90
2022-09-21T08:19:02.190Z,99.90
2022-09-21T08:21:33.527Z,99.90
2022-09-21T08:24:00.456Z,99.90
2022-09-21T08:26:27.938Z,99.90
2022-09-21T08:28:58.855Z,99.90
2022-09-21T08:31:26.611Z,99.90
2022-09-21T08:33:59.718Z,99.90
2022-09-21T08:36:29.269Z,99.90
2022-09-21T08:38:56.986Z,99.90
2022-09-21T08:41:32.806Z,99.90
2022-09-21T08:44:10.351Z,99.90
2022-09-21T08:46:38.606Z,99.90
2022-09-21T08:49:10.906Z,99.90
2022-09-21T08:51:45.567Z,99.90
2022-09-21T08:54:19.515Z,99.90
2022-09-21T08:57:04.351Z,99.90
2022-09-21T08:59:31.600Z,99.90
2022-09-21T09:02:05.974Z,99.90
2022-09-21T09:04:39.152Z,99.90
2022-09-21T09:07:28.034Z,99.90
2022-09-21T09:10:25.554Z,99.90
2022-09-21T09:13:22.712Z,99.90
2022-09-21T09:16:08.190Z,99.60
2022-09-21T09:18:59.522Z,99.90
2022-09-21T09:21:35.739Z,99.10
2022-09-21T09:24:38.937Z,98.90
2022-09-21T09:27:28.672Z,99.20
2022-09-21T09:30:21.802Z,97.70
2022-09-21T09:33:13.842Z,97.10
2022-09-21T09:35:45.807Z,98.00
2022-09-21T09:38:38.522Z,98.00
2022-09-21T09:41:11.502Z,96.00
2022-09-21T09:43:53.479Z,97.30
2022-09-21T09:46:32.321Z,96.40
2022-09-21T09:49:40.238Z,94.80
2022-09-21T09:52:10.848Z,96.20
2022-09-21T09:54:37.815Z,93.50
2022-09-21T09:57:05.950Z,94.80
2022-09-21T09:59:37.465Z,92.70
2022-09-21T10:02:06.304Z,92.80
2022-09-21T10:04:34.957Z,95.10
2022-09-21T10:07:01.994Z,93.80
2022-09-21T10:09:35.562Z,92.50
2022-09-21T10:12:24.974Z,91.20
2022-09-21T10:14:53.661Z,91.80
2022-09-21T10:17:21.348Z,90.70
2022-09-21T10:19:48.603Z,91.20
2022-09-21T10:22:17.980Z,88.90
2022-09-21T10:24:53.396Z,88.00
2022-09-21T10:27:29.372Z,89.60
2022-09-21T10:29:56.260Z,88.20
2022-09-21T10:32:30.055Z,88.00
2022-09-21T10:35:10.534Z,88.70
2022-09-21T10:37:41.430Z,85.60
2022-09-21T10:40:24.282Z,84.30
2022-09-21T10:42:56.516Z,83.40
2022-09-21T10:45:26.765Z,84.90
2022-09-21T10:48:17.075Z,85.30
2022-09-21T10:50:46.361Z,83.40
2022-09-21T10:53:23.521Z,84.00
2022-09-21T10:56:18.879Z,83.60
2022-09-21T10:59:13.644Z,81.70
2022-09-21T11:01:49.950Z,85.70
2022-09-21T11:04:30.178Z,85.50
2022-09-21T11:07:21.493Z,83.20
2022-09-21T11:10:00.619Z,81.10
2022-09-21T11:12:49.430Z,82.50
2022-09-21T11:15:44.340Z,81.00
2022-09-21T11:18:42.101Z,82.00
2022-09-21T11:21:49.393Z,80.70
2022-09-21T11:24:31.809Z,81.90
2022-09-21T11:27:07.053Z,83.40
2022-09-21T11:29:47.539Z,85.30
2022-09-21T11:32:52.071Z,82.40
2022-09-21T11:35:33.439Z,79.10
2022-09-21T11:38:18.713Z,78.60
2022-09-21T11:41:23.074Z,79.30
2022-09-21T11:44:19.244Z,79.80
2022-09-21T11:46:46.318Z,80.80
2022-09-21T11:49:34.630Z,78.80
2022-09-21T11:52:42.683Z,80.60
2022-09-21T11:55:23.271Z,75.10
2022-09-21T11:57:55.065Z,77.90
2022-09-21T12:00:25.010Z,72.90
2022-09-21T12:03:11.852Z,75.40
2022-09-21T12:06:16.246Z,75.60
2022-09-21T12:09:19.453Z,75.50
2022-09-21T12:11:53.903Z,75.40
2022-09-21T12:17:30.650Z,69.70
2022-09-21T12:20:18.670Z,73.60
2022-09-21T12:22:49.805Z,74.10
2022-09-21T12:25:37.931Z,70.60
2022-09-21T12:28:39.128Z,73.60
2022-09-21T12:31:21.662Z,71.70
2022-09-21T12:33:57.855Z,73.50
2022-09-21T12:36:41.859Z,72.20
2022-09-21T12:39:31.116Z,71.90
2022-09-21T12:42:21.104Z,71.30
2022-09-21T12:44:53.093Z,71.10
2022-09-21T12:47:30.056Z,69.50
2022-09-21T12:50:07.410Z,71.30
2022-09-21T12:52:37.204Z,72.30
2022-09-21T12:55:31.406Z,70.70
2022-09-21T12:58:17.077Z,69.60
2022-09-21T13:01:16.942Z,69.00
2022-09-21T13:03:57.198Z,71.30
2022-09-21T13:06:52.388Z,71.90
2022-09-21T13:09:20.889Z,71.90
2022-09-21T13:11:56.870Z,70.10
2022-09-21T13:14:30.428Z,71.30
2022-09-21T13:17:01.829Z,69.50
2022-09-21T13:19:35.381Z,72.90
2022-09-21T13:22:21.405Z,69.90
2022-09-21T13:25:05.778Z,68.80
2022-09-21T13:28:03.807Z,71.30
2022-09-21T13:30:48.306Z,70.70
2022-09-21T13:33:21.478Z,67.70
2022-09-21T13:36:00.479Z,69.40
2022-09-21T13:38:37.426Z,68.90
2022-09-21T13:41:45.424Z,70.30
2022-09-21T13:44:33.618Z,72.50
2022-09-21T13:47:01.620Z,70.20
2022-09-21T13:49:40.930Z,68.70
2022-09-21T13:52:13.461Z,70.00
2022-09-21T13:55:19.363Z,70.10
2022-09-21T13:57:50.756Z,70.30
2022-09-21T14:00:17.579Z,69.70
2022-09-21T14:02:44.368Z,70.10
2022-09-21T14:05:34.512Z,70.80
2022-09-21T14:08:16.377Z,68.70
2022-09-21T14:11:06.242Z,69.60
2022-09-21T14:13:38.947Z,71.90
2022-09-21T14:16:37.463Z,71.20
2022-09-21T14:19:27.022Z,69.20
2022-09-21T14:22:06.508Z,67.50
2022-09-21T14:24:43.091Z,67.30
2022-09-21T14:27:19.491Z,68.20
2022-09-21T14:29:53.131Z,68.60
2022-09-21T14:32:26.359Z,67.60
2022-09-21T14:34:59.629Z,67.50
2022-09-21T14:37:32.753Z,66.50
2022-09-21T14:40:04.158Z,69.40
2022-09-21T14:42:32.590Z,67.70
2022-09-21T14:45:04.036Z,69.80
2022-09-21T14:48:15.791Z,68.90
2022-09-21T14:51:08.418Z,68.80
2022-09-21T14:54:00.215Z,68.50
2022-09-21T14:56:40.726Z,70.90
2022-09-21T14:59:38.781Z,69.90
2022-09-21T15:02:24.622Z,73.20
2022-09-21T15:05:11.024Z,69.70
2022-09-21T15:08:30.919Z,70.30
2022-09-21T15:11:04.319Z,70.10
2022-09-21T15:13:52.553Z,71.20
2022-09-21T15:16:38.037Z,72.10
2022-09-21T15:19:24.360Z,69.70
2022-09-21T15:22:09.550Z,70.20
2022-09-21T15:24:36.490Z,71.80
2022-09-21T15:27:15.884Z,72.70
2022-09-21T15:29:49.462Z,72.80
2022-09-21T15:32:35.614Z,75.00
2022-09-21T15:35:06.808Z,73.30
2022-09-21T15:37:39.703Z,73.90
2022-09-21T15:40:22.606Z,74.60
2022-09-21T15:43:16.875Z,75.40
2022-09-21T15:45:52.014Z,75.80
2022-09-21T15:48:19.888Z,76.20
2022-09-21T15:50:53.724Z,75.00
2022-09-21T15:53:32.075Z,75.40
2022-09-21T15:56:02.948Z,74.70
2022-09-21T15:58:38.329Z,74.00
2022-09-21T16:01:14.976Z,74.00
2022-09-21T16:03:43.343Z,73.70
2022-09-21T16:06:22.482Z,73.50
2022-09-21T16:08:49.754Z,75.20
2022-09-21T16:11:29.042Z,75.80
2022-09-21T16:14:32.472Z,76.30
2022-09-21T16:17:09.834Z,76.60
2022-09-21T16:19:45.160Z,76.60
2022-09-21T16:22:19.863Z,77.00
2022-09-21T16:24:52.865Z,78.70
2022-09-21T16:27:23.006Z,78.70
2022-09-21T16:29:51.511Z,78.90
2022-09-21T16:32:18.333Z,79.30
2022-09-21T16:34:51.773Z,80.00
2022-09-21T16:37:18.704Z,78.90
2022-09-21T16:39:53.005Z,81.10
2022-09-21T16:42:21.146Z,80.60
2022-09-21T16:44:49.471Z,78.90
2022-09-21T16:47:27.817Z,80.10
2022-09-21T16:50:00.262Z,81.40
2022-09-21T16:52:29.171Z,80.00
2022-09-21T16:54:57.019Z,81.40
2022-09-21T16:57:24.399Z,82.00
2022-09-21T16:59:51.821Z,81.20
2022-09-21T17:02:19.147Z,81.60
2022-09-21T17:04:47.319Z,82.30
2022-09-21T17:07:15.711Z,83.30
2022-09-21T17:09:46.453Z,83.00
2022-09-21T17:12:18.215Z,82.10
2022-09-21T17:14:47.152Z,82.10
2022-09-21T17:17:23.662Z,83.30
2022-09-21T17:19:53.097Z,83.70
2022-09-21T17:22:20.704Z,84.10
2022-09-21T17:24:54.903Z,84.00
2022-09-21T17:27:24.328Z,84.70
2022-09-21T17:29:53.865Z,84.40
2022-09-21T17:32:22.780Z,84.90
2022-09-21T17:35:01.699Z,85.30
2022-09-21T17:37:29.434Z,86.10
2022-09-21T17:39:56.608Z,87.10
2022-09-21T17:42:25.797Z,86.30
2022-09-21T17:44:59.672Z,87.00
2022-09-21T17:47:29.181Z,87.50
2022-09-21T17:50:14.198Z,86.70
2022-09-21T17:53:01.051Z,87.10
2022-09-21T17:55:28.846Z,86.40
2022-09-21T17:58:34.450Z,87.20
2022-09-21T18:01:04.574Z,87.20
2022-09-21T18:03:36.056Z,88.30
2022-09-21T18:06:03.869Z,87.60
2022-09-21T18:08:36.170Z,87.30
2022-09-21T18:11:18.508Z,87.30
2022-09-21T18:14:15.031Z,87.00
2022-09-21T18:17:08.398Z,85.60
2022-09-21T18:19:56.195Z,86.70
2022-09-21T18:22:43.420Z,87.00
2022-09-21T18:25:18.574Z,86.60
2022-09-21T18:27:48.580Z,87.10
2022-09-21T18:30:17.504Z,87.80
2022-09-21T18:32:58.547Z,86.50
2022-09-21T18:35:54.875Z,87.90
2022-09-21T18:38:37.325Z,87.80
2022-09-21T18:41:43.768Z,87.30
2022-09-21T18:44:37.423Z,87.40
2022-09-21T18:47:35.038Z,87.50
2022-09-21T18:50:23.425Z,88.00
2022-09-21T18:53:12.201Z,88.40
2022-09-21T18:55:39.362Z,87.80
2022-09-21T18:58:06.360Z,88.40
2022-09-21T19:00:35.049Z,88.30
2022-09-21T19:03:23.684Z,88.50
2022-09-21T19:06:15.205Z,88.30
2022-09-21T19:09:16.854Z,88.40
2022-09-21T19:11:47.623Z,88.30
2022-09-21T19:14:44.768Z,88.20
2022-09-21T19:17:20.302Z,88.90
2022-09-21T19:19:59.014Z,89.30
2022-09-21T19:22:59.054Z,88.70
2022-09-21T19:25:36.453Z,88.50
2022-09-21T19:28:35.281Z,88.60
2022-09-21T19:31:09.589Z,89.10
2022-09-21T19:33:50.089Z,89.20
2022-09-21T19:36:20.635Z,89.40
2022-09-21T19:38:48.079Z,89.60
2022-09-21T19:41:38.160Z,89.50
2022-09-21T19:44:20.015Z,90.10
2022-09-21T19:47:19.225Z,89.20
2022-09-21T19:49:49.899Z,89.40
2022-09-21T19:52:19.686Z,89.40
2022-09-21T19:55:05.916Z,89.90
2022-09-21T19:57:52.870Z,90.00
2022-09-21T20:00:21.120Z,90.20
2022-09-21T20:03:11.044Z,90.10
2022-09-21T20:05:49.267Z,89.30
2022-09-21T20:08:29.673Z,90.00
2022-09-21T20:11:29.204Z,89.60
2022-09-21T20:14:04.951Z,90.20
2022-09-21T20:16:34.861Z,90.30
2022-09-21T20:19:04.782Z,90.30
2022-09-21T20:21:43.755Z,90.40
2022-09-21T20:24:49.490Z,90.70
2022-09-21T20:27:22.378Z,90.40
2022-09-21T20:29:49.208Z,90.80
2022-09-21T20:32:16.138Z,90.90
2022-09-21T20:34:43.015Z,91.00
2022-09-21T20:37:13.555Z,91.00
2022-09-21T20:39:40.438Z,91.00
2022-09-21T20:42:18.945Z,91.10
2022-09-21T20:44:45.890Z,91.30
2022-09-21T20:47:12.902Z,91.10
2022-09-21T20:49:40.017Z,90.90
2022-09-21T20:52:11.292Z,91.40
2022-09-21T20:54:42.566Z,91.70
2022-09-21T20:57:16.048Z,91.60
2022-09-21T20:59:43.547Z,91.40
2022-09-21T21:02:16.752Z,91.70
2022-09-21T21:04:43.849Z,91.70
2022-09-21T21:07:11.220Z,92.00
2022-09-21T21:09:38.170Z,92.10
2022-09-21T21:12:05.351Z,92.00
2022-09-21T21:14:32.201Z,91.90
2022-09-21T21:16:59.593Z,91.90
2022-09-21T21:19:27.040Z,92.30
2022-09-21T21:21:55.917Z,92.30
2022-09-21T21:24:41.165Z,92.50
2022-09-21T21:27:11.593Z,92.50
2022-09-21T21:29:38.333Z,92.70
2022-09-21T21:32:05.492Z,92.80
2022-09-21T21:34:32.390Z,93.10
2022-09-21T21:36:59.137Z,92.70
2022-09-21T21:39:26.141Z,92.70
2022-09-21T21:41:52.974Z,92.70
2022-09-21T21:44:19.990Z,93.00
2022-09-21T21:46:51.535Z,93.00
2022-09-21T21:49:24.199Z,93.20
2022-09-21T21:51:52.329Z,93.40
2022-09-21T21:54:23.168Z,93.30
2022-09-21T21:56:55.810Z,93.40
2022-09-21T21:59:23.487Z,93.70
2022-09-21T22:01:50.802Z,94.10
2022-09-21T22:04:17.665Z,93.80
2022-09-21T22:06:44.916Z,94.60
2022-09-21T22:09:12.261Z,94.90
2022-09-21T22:11:39.494Z,94.50
2022-09-21T22:14:25.507Z,94.30
2022-09-21T22:16:55.034Z,94.70
2022-09-21T22:19:22.008Z,94.80
2022-09-21T22:21:53.977Z,95.00
2022-09-21T22:24:22.242Z,95.50
2022-09-21T22:26:52.276Z,95.40
2022-09-21T22:29:21.240Z,95.40
2022-09-21T22:31:49.895Z,95.50
2022-09-21T22:34:19.661Z,95.50
2022-09-21T22:36:46.818Z,95.40
2022-09-21T22:39:17.544Z,95.60
2022-09-21T22:41:44.874Z,95.80
2022-09-21T22:44:14.174Z,96.10
2022-09-21T22:46:41.299Z,96.00
2022-09-21T22:49:08.533Z,96.00
2022-09-21T22:51:38.697Z,95.90
2022-09-21T22:54:06.096Z,96.20
2022-09-21T22:56:33.690Z,96.20
2022-09-21T22:59:03.142Z,96.10
2022-09-21T23:01:38.462Z,96.30
2022-09-21T23:04:17.107Z,96.60
2022-09-21T23:06:45.413Z,96.60
2022-09-21T23:09:15.912Z,96.40
2022-09-21T23:11:47.176Z,96.20
2022-09-21T23:14:15.647Z,96.30
2022-09-21T23:16:45.654Z,96.30
2022-09-21T23:19:15.985Z,96.70
2022-09-21T23:21:45.124Z,96.70
2022-09-21T23:24:16.069Z,96.70
2022-09-21T23:26:46.759Z,97.10
2022-09-21T23:29:15.238Z,97.40
2022-09-21T23:31:45.058Z,97.40
2022-09-21T23:34:13.412Z,97.20
2022-09-21T23:36:41.195Z,98.10
2022-09-21T23:39:11.456Z,97.70
2022-09-21T23:41:40.956Z,97.30
2022-09-21T23:44:08.052Z,97.80
2022-09-21T23:46:36.692Z,98.60
2022-09-21T23:49:03.977Z,98.80
2022-09-21T23:51:31.008Z,98.90
2022-09-21T23:53:58.670Z,99.40
2022-09-21T23:56:26.159Z,99.40
2022-09-21T23:58:53.160Z,99.90
